createdAt,value
2017-06-04T00:00:32.010Z,20.40
2017-06-04T00:02:58.939Z,20.50
2017-06-04T00:05:26.101Z,20.50
2017-06-04T00:07:52.606Z,20.40
2017-06-04T00:10:19.164Z,20.50
2017-06-04T00:12:45.701Z,20.50
2017-06-04T00:15:12.496Z,20.40
2017-06-04T00:17:39.799Z,20.40
2017-06-04T00:20:06.326Z,20.40
2017-06-04T00:22:32.967Z,20.30
2017-06-04T00:24:59.500Z,20.30
2017-06-04T00:27:26.397Z,20.30
2017-06-04T00:29:53.697Z,20.30
2017-06-04T00:32:20.269Z,20.30
2017-06-04T00:34:47.584Z,20.20
2017-06-04T00:37:14.160Z,20.20
2017-06-04T00:39:41.853Z,20.20
2017-06-04T00:42:08.417Z,20.10
2017-06-04T00:44:35.043Z,20.20
2017-06-04T00:47:01.976Z,20.20
2017-06-04T00:49:30.686Z,20.10
2017-06-04T00:51:58.735Z,20.10
2017-06-04T00:54:25.342Z,20.10
2017-06-04T00:56:51.909Z,20.10
2017-06-04T00:59:18.673Z,20.10
2017-06-04T01:01:45.255Z,20.10
2017-06-04T01:04:11.735Z,20.00
2017-06-04T01:06:39.077Z,19.90
2017-06-04T01:09:05.620Z,19.90
2017-06-04T01:11:32.413Z,19.90
2017-06-04T01:13:59.706Z,19.80
2017-06-04T01:16:26.264Z,19.80
2017-06-04T01:18:53.081Z,19.80
2017-06-04T01:21:19.711Z,19.70
2017-06-04T01:23:46.341Z,19.70
2017-06-04T01:26:12.931Z,19.60
2017-06-04T01:28:40.202Z,19.50
2017-06-04T01:31:07.046Z,19.50
2017-06-04T01:33:33.550Z,19.50
2017-06-04T01:36:00.104Z,19.50
2017-06-04T01:38:26.714Z,19.40
2017-06-04T01:40:54.282Z,19.40
2017-06-04T01:43:21.847Z,19.30
2017-06-04T01:45:48.461Z,19.30
2017-06-04T01:48:15.003Z,19.30
2017-06-04T01:50:41.803Z,19.30
2017-06-04T01:53:08.403Z,19.20
2017-06-04T01:55:34.952Z,19.10
2017-06-04T01:58:01.581Z,19.10
2017-06-04T02:00:28.130Z,19.10
2017-06-04T02:02:55.044Z,19.00
2017-06-04T02:05:21.606Z,19.00
2017-06-04T02:07:48.206Z,18.90
2017-06-04T02:10:14.759Z,18.90
2017-06-04T02:12:41.283Z,18.80
2017-06-04T02:15:08.098Z,18.80
2017-06-04T02:17:35.414Z,18.70
2017-06-04T02:20:01.986Z,18.70
2017-06-04T02:22:29.366Z,18.60
2017-06-04T02:24:55.944Z,18.60
2017-06-04T02:27:22.731Z,18.60
2017-06-04T02:29:49.277Z,18.60
2017-06-04T02:32:15.845Z,18.50
2017-06-04T02:34:42.485Z,18.50
2017-06-04T02:37:09.046Z,18.50
2017-06-04T02:39:36.627Z,18.40
2017-06-04T02:42:03.296Z,18.40
2017-06-04T02:44:29.846Z,18.40
2017-06-04T02:46:56.418Z,18.40
2017-06-04T02:49:23.708Z,18.40
2017-06-04T02:51:50.434Z,18.30
2017-06-04T02:54:16.975Z,18.30
2017-06-04T02:56:43.558Z,18.30
2017-06-04T02:59:10.371Z,18.30
2017-06-04T03:01:36.933Z,18.30
2017-06-04T03:04:03.455Z,18.20
2017-06-04T03:06:30.046Z,18.30
2017-06-04T03:08:59.871Z,18.30
2017-06-04T03:11:26.641Z,18.30
2017-06-04T03:13:53.195Z,18.40
2017-06-04T03:16:20.565Z,18.40
2017-06-04T03:18:47.421Z,18.40
2017-06-04T03:21:13.987Z,18.50
2017-06-04T03:23:41.079Z,18.50
2017-06-04T03:26:08.666Z,18.60
2017-06-04T03:28:35.311Z,18.60
2017-06-04T03:31:03.547Z,18.60
2017-06-04T03:33:32.613Z,18.60
2017-06-04T03:36:03.304Z,18.60
2017-06-04T03:38:32.218Z,18.70
2017-06-04T03:41:01.453Z,18.70
2017-06-04T03:43:30.717Z,18.60
2017-06-04T03:45:59.201Z,18.60
2017-06-04T03:48:32.527Z,18.50
2017-06-04T03:51:01.713Z,18.50
2017-06-04T03:56:07.381Z,18.60
2017-06-04T03:58:39.101Z,18.60
2017-06-04T04:01:09.325Z,18.60
2017-06-04T04:03:40.296Z,18.60
2017-06-04T04:06:08.639Z,18.60
2017-06-04T04:08:39.456Z,18.70
2017-06-04T04:11:10.068Z,18.70
2017-06-04T04:13:40.124Z,18.70
2017-06-04T04:16:08.233Z,18.70
2017-06-04T04:18:37.462Z,18.70
2017-06-04T04:21:05.099Z,18.60
2017-06-04T04:23:36.522Z,18.60
2017-06-04T04:26:05.518Z,18.60
2017-06-04T04:28:36.379Z,18.60
2017-06-04T04:31:05.740Z,18.60
2017-06-04T04:33:35.296Z,18.50
2017-06-04T04:36:05.058Z,18.50
2017-06-04T04:38:35.058Z,18.50
2017-06-04T04:43:41.806Z,18.50
2017-06-04T04:46:13.907Z,18.40
2017-06-04T04:48:43.858Z,18.40
2017-06-04T04:51:13.105Z,18.30
2017-06-04T04:53:43.023Z,18.30
2017-06-04T04:56:12.257Z,18.30
2017-06-04T04:58:40.954Z,18.20
2017-06-04T05:01:09.491Z,18.20
2017-06-04T05:03:38.998Z,18.20
2017-06-04T05:06:08.637Z,18.20
2017-06-04T05:08:39.871Z,18.20
2017-06-04T05:11:10.848Z,18.20
2017-06-04T05:13:41.518Z,18.20
2017-06-04T05:16:09.308Z,18.30
2017-06-04T05:18:43.225Z,18.40
2017-06-04T05:21:11.384Z,18.40
2017-06-04T05:23:54.058Z,18.40
2017-06-04T05:26:25.444Z,18.50
2017-06-04T05:28:56.422Z,18.60
2017-06-04T05:31:27.902Z,18.70
2017-06-04T05:33:59.007Z,18.70
2017-06-04T05:36:26.559Z,18.70
2017-06-04T05:38:55.934Z,18.70
2017-06-04T05:41:24.214Z,18.70
2017-06-04T05:43:50.870Z,18.70
2017-06-04T05:46:17.456Z,18.80
2017-06-04T05:48:44.040Z,18.90
2017-06-04T05:51:10.618Z,19.00
2017-06-04T05:53:37.511Z,19.20
2017-06-04T05:56:04.144Z,19.30
2017-06-04T05:58:30.682Z,19.30
2017-06-04T06:00:57.633Z,19.30
2017-06-04T06:03:24.175Z,19.40
2017-06-04T06:05:50.767Z,19.40
2017-06-04T06:08:17.371Z,19.60
2017-06-04T06:10:44.710Z,19.80
2017-06-04T06:13:11.508Z,19.70
2017-06-04T06:15:38.045Z,19.70
2017-06-04T06:18:04.622Z,19.60
2017-06-04T06:20:31.233Z,19.60
2017-06-04T06:22:57.799Z,19.70
2017-06-04T06:25:24.699Z,19.60
2017-06-04T06:27:51.284Z,19.50
2017-06-04T06:30:17.930Z,19.50
2017-06-04T06:32:44.604Z,19.50
2017-06-04T06:35:11.185Z,19.40
2017-06-04T06:37:38.081Z,19.50
2017-06-04T06:40:04.709Z,19.50
2017-06-04T06:42:31.294Z,19.50
2017-06-04T06:44:57.939Z,19.50
2017-06-04T06:47:24.528Z,19.50
2017-06-04T06:49:51.434Z,19.50
2017-06-04T06:52:18.063Z,19.50
2017-06-04T06:54:45.390Z,19.50
2017-06-04T06:57:12.022Z,19.50
2017-06-04T06:59:38.671Z,19.40
2017-06-04T07:02:06.385Z,19.40
2017-06-04T07:04:32.976Z,19.40
2017-06-04T07:07:21.569Z,19.40
2017-06-04T07:09:48.213Z,19.30
2017-06-04T07:12:14.846Z,19.30
2017-06-04T07:14:41.461Z,19.30
2017-06-04T07:17:08.139Z,19.10
2017-06-04T07:19:35.052Z,19.10
2017-06-04T07:22:01.618Z,19.00
2017-06-04T07:24:28.192Z,18.80
2017-06-04T07:26:55.091Z,18.80
2017-06-04T07:29:21.735Z,18.70
2017-06-04T07:31:48.628Z,18.70
2017-06-04T07:34:15.269Z,18.50
2017-06-04T07:36:41.906Z,18.50
2017-06-04T07:39:08.560Z,18.40
2017-06-04T07:41:35.243Z,18.40
2017-06-04T07:44:02.143Z,18.40
2017-06-04T07:46:28.715Z,18.40
2017-06-04T07:48:56.963Z,18.30
2017-06-04T07:51:23.625Z,18.30
2017-06-04T07:53:50.226Z,18.30
2017-06-04T07:56:17.064Z,18.30
2017-06-04T07:58:43.647Z,18.30
2017-06-04T08:01:10.274Z,18.30
2017-06-04T08:03:36.899Z,18.40
2017-06-04T08:06:03.496Z,18.30
2017-06-04T08:08:30.352Z,18.30
2017-06-04T08:10:56.887Z,18.30
2017-06-04T08:13:23.453Z,18.30
2017-06-04T08:15:50.054Z,18.30
2017-06-04T08:18:16.774Z,18.30
2017-06-04T08:20:43.610Z,18.30
2017-06-04T08:23:10.155Z,18.20
2017-06-04T08:25:36.752Z,18.20
2017-06-04T08:28:04.109Z,18.00
2017-06-04T08:30:30.683Z,18.00
2017-06-04T08:32:57.627Z,17.90
2017-06-04T08:35:24.201Z,17.90
2017-06-04T08:37:50.794Z,17.80
2017-06-04T08:40:17.627Z,17.70
2017-06-04T08:42:44.142Z,17.80
2017-06-04T08:45:10.725Z,17.70
2017-06-04T08:47:37.368Z,17.70
2017-06-04T08:50:03.931Z,17.60
2017-06-04T08:52:30.826Z,17.60
2017-06-04T08:54:57.412Z,17.70
2017-06-04T08:57:24.706Z,17.80
2017-06-04T08:59:51.331Z,17.80
2017-06-04T09:02:18.104Z,17.80
2017-06-04T09:04:45.808Z,17.70
2017-06-04T09:07:13.098Z,17.70
2017-06-04T09:09:39.696Z,17.70
2017-06-04T09:12:07.023Z,17.60
2017-06-04T09:14:33.549Z,17.60
2017-06-04T09:17:00.330Z,17.60
2017-06-04T09:19:27.590Z,17.60
2017-06-04T09:21:54.290Z,17.60
2017-06-04T09:24:20.928Z,17.70
2017-06-04T09:26:47.484Z,17.80
2017-06-04T09:29:14.337Z,17.90
2017-06-04T09:34:41.614Z,18.20
2017-06-04T09:37:08.184Z,18.30
2017-06-04T09:39:34.829Z,18.40
2017-06-04T09:42:01.705Z,18.40
2017-06-04T09:44:29.007Z,18.60
2017-06-04T09:49:48.694Z,18.60
2017-06-04T09:52:15.305Z,18.50
2017-06-04T09:54:42.113Z,18.50
2017-06-04T09:57:08.646Z,18.50
2017-06-04T09:59:47.022Z,18.50
2017-06-04T10:02:13.568Z,18.50
2017-06-04T10:04:40.130Z,18.40
2017-06-04T10:07:06.937Z,18.30
2017-06-04T10:09:33.513Z,18.20
2017-06-04T10:12:00.126Z,18.10
2017-06-04T10:14:26.710Z,18.10
2017-06-04T10:16:53.243Z,17.90
2017-06-04T10:19:19.749Z,17.80
2017-06-04T10:21:47.454Z,17.60
2017-06-04T10:24:14.842Z,17.50
2017-06-04T10:26:41.398Z,17.50
2017-06-04T10:29:08.791Z,17.20
2017-06-04T10:31:35.361Z,17.20
2017-06-04T10:34:02.646Z,17.00
2017-06-04T10:36:29.470Z,16.90
2017-06-04T10:38:56.022Z,16.90
2017-06-04T10:41:22.682Z,16.80
2017-06-04T10:43:49.294Z,16.80
2017-06-04T10:49:15.989Z,16.90
2017-06-04T10:51:42.559Z,16.90
2017-06-04T10:54:09.102Z,17.10
2017-06-04T10:56:35.719Z,17.20
2017-06-04T10:59:02.279Z,17.30
2017-06-04T11:01:29.858Z,17.60
2017-06-04T11:03:56.486Z,17.50
2017-06-04T11:06:23.076Z,17.70
2017-06-04T11:08:49.709Z,17.80
2017-06-04T11:11:16.288Z,18.00
2017-06-04T11:13:43.087Z,18.10
2017-06-04T11:16:09.631Z,18.20
2017-06-04T11:18:36.956Z,18.10
2017-06-04T11:21:03.539Z,18.10
2017-06-04T11:23:30.136Z,18.10
2017-06-04T11:25:57.022Z,18.00
2017-06-04T11:28:24.398Z,17.60
2017-06-04T11:30:50.955Z,17.60
2017-06-04T11:33:17.530Z,17.40
2017-06-04T11:35:44.810Z,17.40
2017-06-04T11:38:11.743Z,17.40
2017-06-04T11:40:38.321Z,17.30
2017-06-04T11:43:04.883Z,17.30
2017-06-04T11:45:32.461Z,17.50
2017-06-04T11:47:59.741Z,17.50
2017-06-04T11:50:26.299Z,17.50
2017-06-04T11:52:53.194Z,17.60
2017-06-04T11:55:19.745Z,17.60
2017-06-04T11:57:46.274Z,17.80
2017-06-04T12:00:12.846Z,18.00
2017-06-04T12:02:39.390Z,18.20
2017-06-04T12:05:06.396Z,18.50
2017-06-04T12:07:32.946Z,18.80
2017-06-04T12:09:59.562Z,19.00
2017-06-04T12:12:26.217Z,19.20
2017-06-04T12:14:52.799Z,19.40
2017-06-04T12:17:19.710Z,19.60
2017-06-04T12:19:46.308Z,20.00
2017-06-04T12:22:12.854Z,20.50
2017-06-04T12:24:39.454Z,21.00
2017-06-04T12:27:06.008Z,21.30
2017-06-04T12:29:32.964Z,21.40
2017-06-04T12:31:59.522Z,21.10
2017-06-04T12:34:26.076Z,20.70
2017-06-04T12:36:52.677Z,20.40
2017-06-04T12:39:19.180Z,20.20
2017-06-04T12:41:46.026Z,19.90
2017-06-04T12:44:12.567Z,19.70
2017-06-04T12:46:39.115Z,19.50
2017-06-04T12:49:05.740Z,19.40
2017-06-04T12:51:32.317Z,19.40
2017-06-04T12:53:59.228Z,19.40
2017-06-04T12:56:25.816Z,19.30
2017-06-04T12:58:52.383Z,19.20
2017-06-04T13:01:19.007Z,19.20
2017-06-04T13:03:45.596Z,19.10
2017-06-04T13:06:12.431Z,19.10
2017-06-04T13:08:38.952Z,19.00
2017-06-04T13:11:05.522Z,18.90
2017-06-04T13:13:32.073Z,18.90
2017-06-04T13:15:59.803Z,19.00
2017-06-04T13:18:26.638Z,19.00
2017-06-04T13:20:53.229Z,19.00
2017-06-04T13:23:40.807Z,19.00
2017-06-04T13:26:07.534Z,19.10
2017-06-04T13:28:34.087Z,19.10
2017-06-04T13:31:00.676Z,19.20
2017-06-04T13:33:27.211Z,19.20
2017-06-04T13:35:54.016Z,19.20
2017-06-04T13:38:21.372Z,19.40
2017-06-04T13:40:47.914Z,19.40
2017-06-04T13:43:14.516Z,19.50
2017-06-04T13:45:41.068Z,19.60
2017-06-04T13:48:08.654Z,19.80
2017-06-04T13:50:35.251Z,19.80
2017-06-04T13:53:01.820Z,19.90
2017-06-04T13:55:28.411Z,20.10
2017-06-04T13:57:54.973Z,20.20
2017-06-04T14:00:21.931Z,20.40
2017-06-04T14:02:48.446Z,20.60
2017-06-04T14:05:15.734Z,21.00
2017-06-04T14:07:42.340Z,21.00
2017-06-04T14:10:09.678Z,21.20
2017-06-04T14:12:37.259Z,21.30
2017-06-04T14:15:03.864Z,21.30
2017-06-04T14:17:30.420Z,21.30
2017-06-04T14:19:58.564Z,20.80
2017-06-04T14:22:25.087Z,20.80
2017-06-04T14:24:51.909Z,20.60
2017-06-04T14:27:18.424Z,20.40
2017-06-04T14:29:45.032Z,20.30
2017-06-04T14:32:12.572Z,20.00
2017-06-04T14:34:39.913Z,19.80
2017-06-04T14:37:06.556Z,19.80
2017-06-04T14:39:33.168Z,19.90
2017-06-04T14:41:59.703Z,19.90
2017-06-04T14:44:26.596Z,20.00
2017-06-04T14:46:53.122Z,19.90
2017-06-04T14:49:20.402Z,19.70
2017-06-04T14:51:47.214Z,19.70
2017-06-04T14:54:14.502Z,19.70
2017-06-04T14:56:41.038Z,19.70
2017-06-04T14:59:07.619Z,19.70
2017-06-04T15:01:34.962Z,19.70
2017-06-04T15:04:01.856Z,19.70
2017-06-04T15:06:28.401Z,19.60
2017-06-04T15:08:54.973Z,19.70
2017-06-04T15:11:22.306Z,19.80
2017-06-04T15:13:48.908Z,19.80
2017-06-04T15:16:15.856Z,19.80
2017-06-04T15:18:42.490Z,19.70
2017-06-04T15:21:09.009Z,19.70
2017-06-04T15:23:35.857Z,19.70
2017-06-04T15:26:02.429Z,19.70
2017-06-04T15:28:28.990Z,19.70
2017-06-04T15:30:55.621Z,19.80
2017-06-04T15:33:22.200Z,19.90
2017-06-04T15:35:49.069Z,19.90
2017-06-04T15:38:15.607Z,19.90
2017-06-04T15:40:42.155Z,19.90
2017-06-04T15:43:08.733Z,20.00
2017-06-04T15:45:35.263Z,20.00
2017-06-04T15:48:02.289Z,19.80
2017-06-04T15:50:28.871Z,19.80
2017-06-04T15:52:55.453Z,19.80
2017-06-04T15:55:22.041Z,19.80
2017-06-04T15:57:48.608Z,20.00
2017-06-04T16:00:15.470Z,19.90
2017-06-04T16:02:42.075Z,19.80
2017-06-04T16:05:08.659Z,19.80
2017-06-04T16:07:35.234Z,19.80
2017-06-04T16:10:01.783Z,19.70
2017-06-04T16:12:28.353Z,19.70
2017-06-04T16:14:54.914Z,19.70
2017-06-04T16:17:21.539Z,19.70
2017-06-04T16:19:48.183Z,19.70
2017-06-04T16:22:14.739Z,19.80
2017-06-04T16:24:41.315Z,19.80
2017-06-04T16:27:07.849Z,19.80
2017-06-04T16:29:36.159Z,19.80
2017-06-04T16:32:02.762Z,19.80
2017-06-04T16:34:29.312Z,19.70
2017-06-04T16:36:55.880Z,19.60
2017-06-04T16:39:22.451Z,19.60
2017-06-04T16:41:49.785Z,19.50
2017-06-04T16:44:16.361Z,19.50
2017-06-04T16:46:42.951Z,19.40
2017-06-04T16:49:09.486Z,19.30
2017-06-04T16:51:36.048Z,19.20
2017-06-04T16:54:02.609Z,19.20
2017-06-04T16:56:29.650Z,19.10
2017-06-04T16:58:56.130Z,19.00
2017-06-04T17:01:22.714Z,19.00
2017-06-04T17:03:50.294Z,18.90
2017-06-04T17:06:16.855Z,18.90
2017-06-04T17:08:44.146Z,18.90
2017-06-04T17:11:11.855Z,18.90
2017-06-04T17:13:38.399Z,18.90
2017-06-04T17:16:05.050Z,18.80
2017-06-04T17:18:32.420Z,18.70
2017-06-04T17:20:58.990Z,18.70
2017-06-04T17:23:25.835Z,18.70
2017-06-04T17:25:52.417Z,18.70
2017-06-04T17:28:18.924Z,18.70
2017-06-04T17:30:45.848Z,18.80
2017-06-04T17:33:12.430Z,18.90
2017-06-04T17:35:39.003Z,19.00
2017-06-04T17:38:05.564Z,19.30
2017-06-04T17:40:32.218Z,19.60
2017-06-04T17:42:59.013Z,19.90
2017-06-04T17:45:25.584Z,20.00
2017-06-04T17:47:52.115Z,20.10
2017-06-04T17:50:18.686Z,20.00
2017-06-04T17:52:45.261Z,20.00
2017-06-04T17:55:12.094Z,19.90
2017-06-04T17:57:38.616Z,19.70
2017-06-04T18:00:05.197Z,19.60
2017-06-04T18:02:31.754Z,19.60
2017-06-04T18:04:58.341Z,19.50
2017-06-04T18:07:25.171Z,19.40
2017-06-04T18:09:51.710Z,19.30
2017-06-04T18:12:18.297Z,19.30
2017-06-04T18:14:44.894Z,19.10
2017-06-04T18:17:11.449Z,18.90
2017-06-04T18:19:38.218Z,18.80
2017-06-04T18:22:04.827Z,18.70
2017-06-04T18:24:31.382Z,18.60
2017-06-04T18:27:04.000Z,18.50
2017-06-04T18:29:30.973Z,18.50
2017-06-04T18:31:57.904Z,18.40
2017-06-04T18:34:24.464Z,18.30
2017-06-04T18:36:51.016Z,18.20
2017-06-04T18:39:17.827Z,18.10
2017-06-04T18:41:44.554Z,18.00
2017-06-04T18:44:11.095Z,17.90
2017-06-04T18:46:37.655Z,17.80
2017-06-04T18:49:04.267Z,17.70
2017-06-04T18:51:31.287Z,17.60
2017-06-04T18:56:31.177Z,17.50
2017-06-04T18:58:57.761Z,17.40
2017-06-04T19:01:24.470Z,17.40
2017-06-04T19:03:51.356Z,17.30
2017-06-04T19:06:17.916Z,17.30
2017-06-04T19:08:44.525Z,17.20
2017-06-04T19:11:11.522Z,17.10
2017-06-04T19:13:38.057Z,17.10
2017-06-04T19:16:04.587Z,17.00
2017-06-04T19:18:31.941Z,16.80
2017-06-04T19:20:59.235Z,16.80
2017-06-04T19:23:26.138Z,16.70
2017-06-04T19:25:52.752Z,16.70
2017-06-04T19:28:19.421Z,16.60
2017-06-04T19:30:46.031Z,16.60
2017-06-04T19:33:12.621Z,16.50
2017-06-04T19:35:39.450Z,16.50
2017-06-04T19:38:06.073Z,16.50
2017-06-04T19:40:32.631Z,16.40
2017-06-04T19:42:59.204Z,16.40
2017-06-04T19:45:25.769Z,16.30
2017-06-04T19:47:52.598Z,16.20
2017-06-04T19:50:19.192Z,16.20
2017-06-04T19:52:45.763Z,16.10
2017-06-04T19:55:12.378Z,16.00
2017-06-04T19:57:39.706Z,15.90
2017-06-04T20:00:06.260Z,15.90
2017-06-04T20:02:32.865Z,15.90
2017-06-04T20:04:59.419Z,15.80
2017-06-04T20:07:25.886Z,15.80
2017-06-04T20:09:52.418Z,15.70
2017-06-04T20:12:18.998Z,15.60
2017-06-04T20:14:45.544Z,15.60
2017-06-04T20:17:12.163Z,15.50
2017-06-04T20:19:38.771Z,15.40
2017-06-04T20:22:05.310Z,15.40
2017-06-04T20:24:31.950Z,15.30
2017-06-04T20:26:58.526Z,15.20
2017-06-04T20:29:25.109Z,15.10
2017-06-04T20:31:54.109Z,15.00
2017-06-04T20:34:20.664Z,15.00
2017-06-04T20:36:47.223Z,15.00
2017-06-04T20:39:13.787Z,15.00
2017-06-04T20:41:40.397Z,14.90
2017-06-04T20:44:07.034Z,14.90
2017-06-04T20:46:33.616Z,14.90
2017-06-04T20:49:00.201Z,14.90
2017-06-04T20:51:26.756Z,14.90
2017-06-04T20:53:54.143Z,15.00
2017-06-04T20:56:20.837Z,14.90
2017-06-04T20:58:47.403Z,15.00
2017-06-04T21:01:14.267Z,15.00
2017-06-04T21:03:40.851Z,15.00
2017-06-04T21:06:07.453Z,14.90
2017-06-04T21:08:34.093Z,14.80
2017-06-04T21:11:00.652Z,14.70
2017-06-04T21:13:27.261Z,14.70
2017-06-04T21:15:53.820Z,14.70
2017-06-04T21:18:20.386Z,14.70
2017-06-04T21:20:46.948Z,14.80
2017-06-04T21:23:13.578Z,14.80
2017-06-04T21:25:40.129Z,14.80
2017-06-04T21:28:06.787Z,14.80
2017-06-04T21:30:33.371Z,14.80
2017-06-04T21:32:59.926Z,14.90
2017-06-04T21:35:26.526Z,14.90
2017-06-04T21:37:53.144Z,14.90
2017-06-04T21:40:20.569Z,14.80
2017-06-04T21:42:47.132Z,14.80
2017-06-04T21:45:14.465Z,14.80
2017-06-04T21:47:41.091Z,14.80
2017-06-04T21:50:07.676Z,14.80
2017-06-04T21:52:34.234Z,14.80
2017-06-04T21:55:00.791Z,14.80
2017-06-04T21:57:27.409Z,14.80
2017-06-04T21:59:54.093Z,14.80
2017-06-04T22:02:20.782Z,14.70
2017-06-04T22:04:47.359Z,14.70
2017-06-04T22:07:14.676Z,14.60
2017-06-04T22:09:41.236Z,14.60
2017-06-04T22:12:07.890Z,14.50
2017-06-04T22:14:35.229Z,14.50
2017-06-04T22:17:01.850Z,14.40
2017-06-04T22:19:28.374Z,14.40
2017-06-04T22:21:55.021Z,14.40
2017-06-04T22:24:21.567Z,14.30
2017-06-04T22:26:48.107Z,14.30
2017-06-04T22:29:14.652Z,14.30
2017-06-04T22:31:42.053Z,14.20
2017-06-04T22:34:08.608Z,14.20
2017-06-04T22:36:35.175Z,14.20
2017-06-04T22:39:02.503Z,14.10
2017-06-04T22:41:29.099Z,14.20
2017-06-04T22:43:55.711Z,14.10
2017-06-04T22:46:22.999Z,14.00
2017-06-04T22:48:49.532Z,14.00
2017-06-04T22:51:16.109Z,14.00
2017-06-04T22:53:42.671Z,13.90
2017-06-04T22:56:09.512Z,13.90
2017-06-04T22:58:36.042Z,13.90
2017-06-04T23:01:02.599Z,13.90
2017-06-04T23:03:29.179Z,13.90
2017-06-04T23:05:55.833Z,13.90
2017-06-04T23:08:22.697Z,13.90
2017-06-04T23:10:49.246Z,13.90
2017-06-04T23:13:15.789Z,13.90
2017-06-04T23:15:48.291Z,13.90
2017-06-04T23:18:14.840Z,13.90
2017-06-04T23:20:42.158Z,13.80
2017-06-04T23:23:08.739Z,13.70
2017-06-04T23:25:35.314Z,13.70
2017-06-04T23:28:01.908Z,13.60
2017-06-04T23:30:29.222Z,13.60
2017-06-04T23:32:57.254Z,13.50
2017-06-04T23:35:23.847Z,13.50
2017-06-04T23:37:51.180Z,13.50
2017-06-04T23:40:17.786Z,13.50
2017-06-04T23:42:44.290Z,13.50
2017-06-04T23:45:10.855Z,13.50
2017-06-04T23:47:37.398Z,13.40
2017-06-04T23:50:03.987Z,13.40
2017-06-04T23:52:31.351Z,13.40
2017-06-04T23:54:57.972Z,13.40
2017-06-04T23:57:25.286Z,13.40
2017-06-04T23:59:51.849Z,13.40
